sensor_id;sensor_type;location;lat;lon;timestamp;pressure;altitude;pressure_sealevel;temperature;humidity
21395;BME280;10858;42.714;23.180;2022-12-18T00:00:48;95185.47;;;8.39;81.80
21395;BME280;10858;42.714;23.180;2022-12-18T00:03:14;95185.03;;;8.58;81.00
21395;BME280;10858;42.714;23.180;2022-12-18T00:05:51;95191.50;;;8.54;80.61
21395;BME280;10858;42.714;23.180;2022-12-18T00:08:18;95195.59;;;8.33;81.34
21395;BME280;10858;42.714;23.180;2022-12-18T00:10:45;95190.59;;;8.28;81.06
21395;BME280;10858;42.714;23.180;2022-12-18T00:13:12;95186.59;;;8.35;81.55
21395;BME280;10858;42.714;23.180;2022-12-18T00:15:39;95193.81;;;8.19;81.61
21395;BME280;10858;42.714;23.180;2022-12-18T00:18:05;95192.16;;;7.78;82.58
21395;BME280;10858;42.714;23.180;2022-12-18T00:20:35;95192.38;;;7.74;83.03
21395;BME280;10858;42.714;23.180;2022-12-18T00:23:02;95204.72;;;7.74;83.04
21395;BME280;10858;42.714;23.180;2022-12-18T00:25:28;95199.84;;;7.68;82.92
21395;BME280;10858;42.714;23.180;2022-12-18T00:27:54;95203.25;;;7.56;82.90
21395;BME280;10858;42.714;23.180;2022-12-18T00:30:20;95202.31;;;7.57;82.82
21395;BME280;10858;42.714;23.180;2022-12-18T00:32:46;95205.88;;;7.70;82.27
21395;BME280;10858;42.714;23.180;2022-12-18T00:35:13;95208.50;;;7.70;81.79
21395;BME280;10858;42.714;23.180;2022-12-18T00:37:39;95215.25;;;7.61;82.29
21395;BME280;10858;42.714;23.180;2022-12-18T00:40:05;95214.00;;;7.67;82.61
21395;BME280;10858;42.714;23.180;2022-12-18T00:42:32;95218.34;;;7.54;82.57
21395;BME280;10858;42.714;23.180;2022-12-18T00:45:16;95225.22;;;7.56;82.97
21395;BME280;10858;42.714;23.180;2022-12-18T00:47:42;95224.31;;;7.57;82.59
21395;BME280;10858;42.714;23.180;2022-12-18T00:50:09;95226.63;;;7.62;82.68
21395;BME280;10858;42.714;23.180;2022-12-18T00:52:35;95223.44;;;7.57;82.17
21395;BME280;10858;42.714;23.180;2022-12-18T00:55:01;95222.50;;;7.58;82.44
21395;BME280;10858;42.714;23.180;2022-12-18T00:57:28;95228.84;;;7.82;81.49
21395;BME280;10858;42.714;23.180;2022-12-18T00:59:54;95231.34;;;7.71;80.62
21395;BME280;10858;42.714;23.180;2022-12-18T01:02:20;95232.69;;;7.22;81.59
21395;BME280;10858;42.714;23.180;2022-12-18T01:04:46;95240.06;;;7.17;82.26
21395;BME280;10858;42.714;23.180;2022-12-18T01:07:12;95241.19;;;7.13;81.92
21395;BME280;10858;42.714;23.180;2022-12-18T01:09:38;95237.78;;;6.82;82.61
21395;BME280;10858;42.714;23.180;2022-12-18T01:12:05;95240.69;;;6.92;83.02
21395;BME280;10858;42.714;23.180;2022-12-18T01:14:31;95246.56;;;7.11;82.64
21395;BME280;10858;42.714;23.180;2022-12-18T01:16:57;95241.31;;;7.25;81.28
21395;BME280;10858;42.714;23.180;2022-12-18T01:19:24;95251.00;;;7.39;81.00
21395;BME280;10858;42.714;23.180;2022-12-18T01:21:50;95248.47;;;7.37;80.76
21395;BME280;10858;42.714;23.180;2022-12-18T01:24:16;95254.78;;;7.21;81.00
21395;BME280;10858;42.714;23.180;2022-12-18T01:26:42;95251.28;;;7.34;80.84
21395;BME280;10858;42.714;23.180;2022-12-18T01:29:08;95249.22;;;7.25;81.08
21395;BME280;10858;42.714;23.180;2022-12-18T01:31:35;95254.38;;;7.41;80.10
21395;BME280;10858;42.714;23.180;2022-12-18T01:34:01;95257.69;;;7.30;80.71
21395;BME280;10858;42.714;23.180;2022-12-18T01:36:32;95255.16;;;7.29;80.05
21395;BME280;10858;42.714;23.180;2022-12-18T01:39:05;95262.84;;;7.18;80.74
21395;BME280;10858;42.714;23.180;2022-12-18T01:41:33;95268.22;;;7.16;80.95
21395;BME280;10858;42.714;23.180;2022-12-18T01:45:01;95258.91;;;7.39;80.80
21395;BME280;10858;42.714;23.180;2022-12-18T01:50:10;95268.50;;;7.68;79.47
21395;BME280;10858;42.714;23.180;2022-12-18T01:52:37;95268.50;;;7.54;79.68
21395;BME280;10858;42.714;23.180;2022-12-18T01:55:06;95275.50;;;7.41;79.69
21395;BME280;10858;42.714;23.180;2022-12-18T01:57:32;95274.66;;;7.40;80.08
21395;BME280;10858;42.714;23.180;2022-12-18T02:00:12;95265.97;;;7.38;79.56
21395;BME280;10858;42.714;23.180;2022-12-18T02:02:40;95273.41;;;7.46;79.67
21395;BME280;10858;42.714;23.180;2022-12-18T02:05:07;95269.66;;;7.36;80.05
21395;BME280;10858;42.714;23.180;2022-12-18T02:11:02;95283.19;;;7.16;80.39
21395;BME280;10858;42.714;23.180;2022-12-18T02:13:50;95294.16;;;7.24;80.73
21395;BME280;10858;42.714;23.180;2022-12-18T02:17:11;95280.94;;;7.10;80.02
21395;BME280;10858;42.714;23.180;2022-12-18T02:20:05;95290.78;;;6.78;80.98
21395;BME280;10858;42.714;23.180;2022-12-18T02:22:52;95297.75;;;6.79;81.35
21395;BME280;10858;42.714;23.180;2022-12-18T02:28:30;95295.13;;;6.79;80.88
21395;BME280;10858;42.714;23.180;2022-12-18T02:31:01;95298.00;;;7.04;80.33
21395;BME280;10858;42.714;23.180;2022-12-18T02:33:29;95298.13;;;6.73;80.18
21395;BME280;10858;42.714;23.180;2022-12-18T02:35:58;95301.78;;;6.70;80.98
21395;BME280;10858;42.714;23.180;2022-12-18T02:38:26;95301.81;;;6.84;80.66
21395;BME280;10858;42.714;23.180;2022-12-18T02:40:54;95312.78;;;7.07;79.91
21395;BME280;10858;42.714;23.180;2022-12-18T02:43:20;95314.78;;;7.03;79.61
21395;BME280;10858;42.714;23.180;2022-12-18T02:45:49;95312.97;;;7.04;79.19
21395;BME280;10858;42.714;23.180;2022-12-18T02:48:18;95313.69;;;6.92;80.38
21395;BME280;10858;42.714;23.180;2022-12-18T02:53:55;95316.34;;;7.06;79.83
21395;BME280;10858;42.714;23.180;2022-12-18T02:56:31;95321.50;;;6.63;80.59
21395;BME280;10858;42.714;23.180;2022-12-18T02:59:13;95331.44;;;6.44;80.48
21395;BME280;10858;42.714;23.180;2022-12-18T03:02:01;95335.31;;;6.23;81.56
21395;BME280;10858;42.714;23.180;2022-12-18T03:07:33;95332.84;;;6.05;81.73
21395;BME280;10858;42.714;23.180;2022-12-18T03:10:01;95329.16;;;6.23;82.18
21395;BME280;10858;42.714;23.180;2022-12-18T03:12:32;95330.84;;;6.55;80.59
21395;BME280;10858;42.714;23.180;2022-12-18T03:15:26;95341.81;;;6.16;81.60
21395;BME280;10858;42.714;23.180;2022-12-18T03:17:56;95342.41;;;5.90;82.88
21395;BME280;10858;42.714;23.180;2022-12-18T03:20:26;95343.63;;;5.67;83.48
21395;BME280;10858;42.714;23.180;2022-12-18T03:23:02;95354.75;;;5.57;83.93
21395;BME280;10858;42.714;23.180;2022-12-18T03:25:31;95349.59;;;5.71;83.62
21395;BME280;10858;42.714;23.180;2022-12-18T03:28:01;95350.69;;;5.67;83.29
21395;BME280;10858;42.714;23.180;2022-12-18T03:30:32;95359.06;;;5.58;83.24
21395;BME280;10858;42.714;23.180;2022-12-18T03:33:10;95356.09;;;5.64;83.54
21395;BME280;10858;42.714;23.180;2022-12-18T03:35:41;95361.44;;;5.47;83.32
21395;BME280;10858;42.714;23.180;2022-12-18T03:38:09;95365.88;;;5.62;83.72
21395;BME280;10858;42.714;23.180;2022-12-18T03:40:47;95362.22;;;5.64;83.62
21395;BME280;10858;42.714;23.180;2022-12-18T03:43:27;95363.69;;;5.70;83.41
21395;BME280;10858;42.714;23.180;2022-12-18T03:49:10;95392.16;;;5.79;82.21
21395;BME280;10858;42.714;23.180;2022-12-18T03:51:47;95401.13;;;5.92;82.10
21395;BME280;10858;42.714;23.180;2022-12-18T03:54:17;95397.00;;;6.19;81.01
21395;BME280;10858;42.714;23.180;2022-12-18T03:56:50;95399.28;;;6.25;80.79
21395;BME280;10858;42.714;23.180;2022-12-18T03:59:20;95394.31;;;6.03;79.77
21395;BME280;10858;42.714;23.180;2022-12-18T04:01:48;95388.97;;;5.57;81.01
21395;BME280;10858;42.714;23.180;2022-12-18T04:04:15;95390.88;;;5.53;81.93
21395;BME280;10858;42.714;23.180;2022-12-18T04:06:45;95390.13;;;5.51;82.08
21395;BME280;10858;42.714;23.180;2022-12-18T04:09:13;95387.91;;;5.76;81.19
21395;BME280;10858;42.714;23.180;2022-12-18T04:11:41;95394.16;;;5.74;81.25
21395;BME280;10858;42.714;23.180;2022-12-18T04:14:09;95392.25;;;5.45;81.25
21395;BME280;10858;42.714;23.180;2022-12-18T04:16:36;95398.59;;;5.41;81.14
21395;BME280;10858;42.714;23.180;2022-12-18T04:19:02;95397.88;;;5.37;81.56
21395;BME280;10858;42.714;23.180;2022-12-18T04:21:28;95406.13;;;5.64;80.50
21395;BME280;10858;42.714;23.180;2022-12-18T04:23:54;95418.41;;;5.63;79.78
21395;BME280;10858;42.714;23.180;2022-12-18T04:26:21;95417.41;;;5.66;79.32
21395;BME280;10858;42.714;23.180;2022-12-18T04:28:47;95425.34;;;5.98;78.46
21395;BME280;10858;42.714;23.180;2022-12-18T04:31:13;95430.88;;;5.77;77.51
21395;BME280;10858;42.714;23.180;2022-12-18T04:33:39;95432.06;;;6.04;77.07
21395;BME280;10858;42.714;23.180;2022-12-18T04:36:06;95434.38;;;6.10;76.54
21395;BME280;10858;42.714;23.180;2022-12-18T04:38:33;95446.72;;;6.25;76.71
21395;BME280;10858;42.714;23.180;2022-12-18T04:40:59;95445.94;;;6.23;76.70
21395;BME280;10858;42.714;23.180;2022-12-18T04:43:25;95449.84;;;6.32;76.19
21395;BME280;10858;42.714;23.180;2022-12-18T04:45:51;95447.88;;;6.20;75.38
21395;BME280;10858;42.714;23.180;2022-12-18T04:48:17;95458.84;;;6.12;75.80
21395;BME280;10858;42.714;23.180;2022-12-18T04:50:43;95453.00;;;5.90;76.59
21395;BME280;10858;42.714;23.180;2022-12-18T04:53:10;95457.03;;;5.80;77.32
21395;BME280;10858;42.714;23.180;2022-12-18T04:55:36;95463.25;;;5.62;77.95
21395;BME280;10858;42.714;23.180;2022-12-18T04:58:02;95470.47;;;5.41;77.85
21395;BME280;10858;42.714;23.180;2022-12-18T05:00:28;95463.25;;;4.93;79.20
21395;BME280;10858;42.714;23.180;2022-12-18T05:02:54;95461.66;;;4.91;79.09
21395;BME280;10858;42.714;23.180;2022-12-18T05:05:21;95462.63;;;4.88;79.68
21395;BME280;10858;42.714;23.180;2022-12-18T05:07:47;95462.19;;;5.14;79.56
21395;BME280;10858;42.714;23.180;2022-12-18T05:10:13;95473.03;;;5.26;78.78
21395;BME280;10858;42.714;23.180;2022-12-18T05:12:39;95477.81;;;5.52;78.09
21395;BME280;10858;42.714;23.180;2022-12-18T05:15:26;95481.84;;;5.59;78.44
21395;BME280;10858;42.714;23.180;2022-12-18T05:17:52;95479.31;;;4.87;80.08
21395;BME280;10858;42.714;23.180;2022-12-18T05:20:18;95486.66;;;5.16;79.36
21395;BME280;10858;42.714;23.180;2022-12-18T05:22:44;95493.91;;;5.46;77.72
21395;BME280;10858;42.714;23.180;2022-12-18T05:25:10;95498.09;;;5.84;77.39
21395;BME280;10858;42.714;23.180;2022-12-18T05:27:37;95510.78;;;5.42;76.69
21395;BME280;10858;42.714;23.180;2022-12-18T05:30:03;95515.34;;;5.55;76.24
21395;BME280;10858;42.714;23.180;2022-12-18T05:32:29;95507.06;;;5.46;76.56
21395;BME280;10858;42.714;23.180;2022-12-18T05:34:56;95499.03;;;5.49;76.89
21395;BME280;10858;42.714;23.180;2022-12-18T05:37:23;95511.78;;;5.56;76.81
21395;BME280;10858;42.714;23.180;2022-12-18T05:39:49;95520.66;;;5.19;76.66
21395;BME280;10858;42.714;23.180;2022-12-18T05:42:15;95531.56;;;5.12;77.40
21395;BME280;10858;42.714;23.180;2022-12-18T05:44:41;95529.75;;;4.95;76.24
21395;BME280;10858;42.714;23.180;2022-12-18T05:47:08;95534.03;;;4.79;77.51
21395;BME280;10858;42.714;23.180;2022-12-18T05:49:35;95527.28;;;4.92;77.44
21395;BME280;10858;42.714;23.180;2022-12-18T05:52:01;95535.34;;;5.06;76.88
21395;BME280;10858;42.714;23.180;2022-12-18T05:54:28;95526.22;;;5.13;77.39
21395;BME280;10858;42.714;23.180;2022-12-18T05:56:54;95528.50;;;4.85;77.95
21395;BME280;10858;42.714;23.180;2022-12-18T05:59:20;95533.81;;;5.02;77.50
21395;BME280;10858;42.714;23.180;2022-12-18T06:01:47;95542.78;;;5.15;77.91
21395;BME280;10858;42.714;23.180;2022-12-18T06:04:13;95544.50;;;5.16;77.28
21395;BME280;10858;42.714;23.180;2022-12-18T06:06:39;95547.53;;;5.09;77.93
21395;BME280;10858;42.714;23.180;2022-12-18T06:09:05;95554.66;;;5.24;76.95
21395;BME280;10858;42.714;23.180;2022-12-18T06:11:35;95552.97;;;5.40;76.50
21395;BME280;10858;42.714;23.180;2022-12-18T06:14:03;95563.69;;;5.18;76.25
21395;BME280;10858;42.714;23.180;2022-12-18T06:16:31;95558.88;;;5.09;77.17
21395;BME280;10858;42.714;23.180;2022-12-18T06:19:02;95563.09;;;5.48;75.96
21395;BME280;10858;42.714;23.180;2022-12-18T06:21:29;95565.88;;;5.28;76.80
21395;BME280;10858;42.714;23.180;2022-12-18T06:23:55;95564.94;;;5.29;76.55
21395;BME280;10858;42.714;23.180;2022-12-18T06:26:22;95564.94;;;5.29;76.38
21395;BME280;10858;42.714;23.180;2022-12-18T06:28:48;95564.66;;;5.35;77.12
21395;BME280;10858;42.714;23.180;2022-12-18T06:31:15;95568.75;;;5.57;76.70
21395;BME280;10858;42.714;23.180;2022-12-18T06:33:42;95572.38;;;5.38;76.97
21395;BME280;10858;42.714;23.180;2022-12-18T06:36:10;95573.75;;;5.28;76.64
21395;BME280;10858;42.714;23.180;2022-12-18T06:38:40;95569.28;;;5.30;76.61
21395;BME280;10858;42.714;23.180;2022-12-18T06:41:16;95583.25;;;5.49;75.98
21395;BME280;10858;42.714;23.180;2022-12-18T06:43:42;95584.78;;;5.53;75.56
21395;BME280;10858;42.714;23.180;2022-12-18T06:46:10;95582.53;;;5.79;74.85
21395;BME280;10858;42.714;23.180;2022-12-18T06:48:36;95592.22;;;5.62;74.48
21395;BME280;10858;42.714;23.180;2022-12-18T06:51:03;95594.00;;;5.61;75.26
21395;BME280;10858;42.714;23.180;2022-12-18T06:53:29;95598.72;;;5.55;75.27
21395;BME280;10858;42.714;23.180;2022-12-18T06:56:05;95593.25;;;5.76;74.07
21395;BME280;10858;42.714;23.180;2022-12-18T06:58:32;95595.34;;;6.04;74.08
21395;BME280;10858;42.714;23.180;2022-12-18T07:01:02;95604.72;;;6.27;73.72
21395;BME280;10858;42.714;23.180;2022-12-18T07:03:29;95605.13;;;6.02;73.14
21395;BME280;10858;42.714;23.180;2022-12-18T07:05:55;95597.09;;;6.38;74.02
21395;BME280;10858;42.714;23.180;2022-12-18T07:08:21;95598.47;;;6.45;72.09
21395;BME280;10858;42.714;23.180;2022-12-18T07:10:47;95605.09;;;6.84;69.93
21395;BME280;10858;42.714;23.180;2022-12-18T07:13:16;95622.00;;;7.13;69.32
21395;BME280;10858;42.714;23.180;2022-12-18T07:15:42;95614.41;;;7.07;69.24
21395;BME280;10858;42.714;23.180;2022-12-18T07:18:09;95615.38;;;6.73;69.93
21395;BME280;10858;42.714;23.180;2022-12-18T07:20:35;95614.31;;;6.93;69.56
21395;BME280;10858;42.714;23.180;2022-12-18T07:23:05;95615.50;;;7.03;69.13
21395;BME280;10858;42.714;23.180;2022-12-18T07:25:37;95625.69;;;6.94;69.03
21395;BME280;10858;42.714;23.180;2022-12-18T07:28:05;95621.38;;;6.60;70.52
21395;BME280;10858;42.714;23.180;2022-12-18T07:30:31;95621.47;;;6.58;69.69
21395;BME280;10858;42.714;23.180;2022-12-18T07:32:58;95619.75;;;6.57;69.88
21395;BME280;10858;42.714;23.180;2022-12-18T07:35:24;95622.03;;;6.80;69.31
21395;BME280;10858;42.714;23.180;2022-12-18T07:37:50;95624.38;;;6.69;68.51
21395;BME280;10858;42.714;23.180;2022-12-18T07:40:16;95636.59;;;6.05;70.27
21395;BME280;10858;42.714;23.180;2022-12-18T07:42:42;95629.81;;;5.82;72.16
21395;BME280;10858;42.714;23.180;2022-12-18T07:45:09;95639.69;;;6.13;71.39
21395;BME280;10858;42.714;23.180;2022-12-18T07:47:36;95642.00;;;6.02;71.90
21395;BME280;10858;42.714;23.180;2022-12-18T07:50:03;95633.94;;;6.22;71.62
21395;BME280;10858;42.714;23.180;2022-12-18T07:52:30;95637.34;;;6.24;70.93
21395;BME280;10858;42.714;23.180;2022-12-18T07:54:56;95653.63;;;6.15;71.89
21395;BME280;10858;42.714;23.180;2022-12-18T07:57:22;95647.19;;;5.86;71.33
21395;BME280;10858;42.714;23.180;2022-12-18T07:59:48;95656.41;;;5.95;71.40
21395;BME280;10858;42.714;23.180;2022-12-18T08:02:15;95655.63;;;6.10;71.24
21395;BME280;10858;42.714;23.180;2022-12-18T08:04:41;95662.91;;;6.22;71.61
21395;BME280;10858;42.714;23.180;2022-12-18T08:07:07;95661.13;;;6.23;70.87
21395;BME280;10858;42.714;23.180;2022-12-18T08:09:33;95670.28;;;6.33;71.17
21395;BME280;10858;42.714;23.180;2022-12-18T08:12:00;95669.50;;;6.31;70.99
21395;BME280;10858;42.714;23.180;2022-12-18T08:14:26;95668.31;;;6.36;69.76
21395;BME280;10858;42.714;23.180;2022-12-18T08:16:52;95669.88;;;6.06;71.25
21395;BME280;10858;42.714;23.180;2022-12-18T08:19:18;95677.00;;;6.04;70.85
21395;BME280;10858;42.714;23.180;2022-12-18T08:21:44;95679.63;;;6.04;71.45
21395;BME280;10858;42.714;23.180;2022-12-18T08:24:10;95679.09;;;6.32;70.66
21395;BME280;10858;42.714;23.180;2022-12-18T08:26:37;95686.31;;;6.28;71.20
21395;BME280;10858;42.714;23.180;2022-12-18T08:29:03;95682.06;;;6.43;70.18
21395;BME280;10858;42.714;23.180;2022-12-18T08:31:30;95688.25;;;6.25;69.50
21395;BME280;10858;42.714;23.180;2022-12-18T08:33:57;95678.88;;;6.36;70.13
21395;BME280;10858;42.714;23.180;2022-12-18T08:36:24;95696.22;;;6.40;70.50
21395;BME280;10858;42.714;23.180;2022-12-18T08:38:50;95695.53;;;6.37;70.27
21395;BME280;10858;42.714;23.180;2022-12-18T08:41:17;95692.47;;;6.61;68.23
21395;BME280;10858;42.714;23.180;2022-12-18T08:43:44;95693.41;;;6.60;68.72
21395;BME280;10858;42.714;23.180;2022-12-18T08:46:39;95701.41;;;6.92;68.73
21395;BME280;10858;42.714;23.180;2022-12-18T08:49:07;95703.38;;;6.88;68.76
21395;BME280;10858;42.714;23.180;2022-12-18T08:51:34;95702.25;;;6.76;68.30
21395;BME280;10858;42.714;23.180;2022-12-18T08:54:00;95701.81;;;7.17;68.50
21395;BME280;10858;42.714;23.180;2022-12-18T08:56:27;95695.25;;;7.24;67.18
21395;BME280;10858;42.714;23.180;2022-12-18T08:58:54;95702.69;;;6.67;69.62
21395;BME280;10858;42.714;23.180;2022-12-18T09:01:21;95698.66;;;7.10;67.45
21395;BME280;10858;42.714;23.180;2022-12-18T09:03:48;95699.91;;;6.70;68.11
21395;BME280;10858;42.714;23.180;2022-12-18T09:06:15;95692.34;;;6.47;67.96
21395;BME280;10858;42.714;23.180;2022-12-18T09:08:43;95695.78;;;6.82;66.80
21395;BME280;10858;42.714;23.180;2022-12-18T09:11:24;95694.91;;;6.99;65.75
21395;BME280;10858;42.714;23.180;2022-12-18T09:13:51;95696.41;;;6.87;65.97
21395;BME280;10858;42.714;23.180;2022-12-18T09:16:18;95694.22;;;6.95;66.34
21395;BME280;10858;42.714;23.180;2022-12-18T09:18:45;95700.97;;;6.83;66.20
21395;BME280;10858;42.714;23.180;2022-12-18T09:21:19;95701.94;;;7.31;66.44
21395;BME280;10858;42.714;23.180;2022-12-18T09:23:54;95707.13;;;7.79;63.76
21395;BME280;10858;42.714;23.180;2022-12-18T09:26:21;95705.69;;;7.58;63.90
21395;BME280;10858;42.714;23.180;2022-12-18T09:28:47;95703.56;;;6.85;64.68
21395;BME280;10858;42.714;23.180;2022-12-18T09:31:14;95706.44;;;7.44;64.30
21395;BME280;10858;42.714;23.180;2022-12-18T09:33:41;95702.28;;;7.56;62.95
21395;BME280;10858;42.714;23.180;2022-12-18T09:36:10;95700.22;;;7.92;64.11
21395;BME280;10858;42.714;23.180;2022-12-18T09:38:37;95702.56;;;8.12;62.31
21395;BME280;10858;42.714;23.180;2022-12-18T09:47:17;95697.47;;;8.25;61.17
21395;BME280;10858;42.714;23.180;2022-12-18T09:49:51;95692.41;;;8.20;60.73
21395;BME280;10858;42.714;23.180;2022-12-18T09:52:26;95705.66;;;8.05;60.45
21395;BME280;10858;42.714;23.180;2022-12-18T09:55:03;95707.03;;;7.81;62.07
21395;BME280;10858;42.714;23.180;2022-12-18T09:57:33;95709.66;;;6.85;63.72
21395;BME280;10858;42.714;23.180;2022-12-18T10:02:44;95689.94;;;6.93;63.96
21395;BME280;10858;42.714;23.180;2022-12-18T10:08:02;95696.97;;;7.09;63.32
21395;BME280;10858;42.714;23.180;2022-12-18T10:10:59;95698.53;;;6.96;63.42
21395;BME280;10858;42.714;23.180;2022-12-18T10:13:35;95696.56;;;6.84;63.99
21395;BME280;10858;42.714;23.180;2022-12-18T10:16:16;95692.03;;;6.36;64.77
21395;BME280;10858;42.714;23.180;2022-12-18T10:27:18;95699.94;;;6.36;66.02
21395;BME280;10858;42.714;23.180;2022-12-18T10:29:47;95705.84;;;6.24;67.63
21395;BME280;10858;42.714;23.180;2022-12-18T10:32:17;95702.75;;;6.33;65.85
21395;BME280;10858;42.714;23.180;2022-12-18T10:34:48;95694.50;;;6.56;65.58
21395;BME280;10858;42.714;23.180;2022-12-18T10:37:20;95705.00;;;6.73;63.33
21395;BME280;10858;42.714;23.180;2022-12-18T10:40:12;95695.91;;;6.46;64.24
21395;BME280;10858;42.714;23.180;2022-12-18T10:42:39;95698.53;;;7.29;62.38
21395;BME280;10858;42.714;23.180;2022-12-18T10:47:35;95704.31;;;7.82;60.97
21395;BME280;10858;42.714;23.180;2022-12-18T10:50:02;95704.75;;;7.43;61.18
21395;BME280;10858;42.714;23.180;2022-12-18T10:52:29;95707.19;;;6.82;62.25
21395;BME280;10858;42.714;23.180;2022-12-18T10:54:58;95695.22;;;6.93;61.00
21395;BME280;10858;42.714;23.180;2022-12-18T10:57:35;95698.41;;;7.15;60.48
21395;BME280;10858;42.714;23.180;2022-12-18T11:02:51;95699.03;;;7.82;59.61
21395;BME280;10858;42.714;23.180;2022-12-18T11:05:46;95696.31;;;7.37;60.80
21395;BME280;10858;42.714;23.180;2022-12-18T11:08:20;95699.38;;;7.45;60.38
21395;BME280;10858;42.714;23.180;2022-12-18T11:10:50;95700.81;;;7.35;61.92
21395;BME280;10858;42.714;23.180;2022-12-18T11:13:21;95702.84;;;6.81;61.58
21395;BME280;10858;42.714;23.180;2022-12-18T11:15:49;95696.97;;;6.59;62.22
21395;BME280;10858;42.714;23.180;2022-12-18T11:21:11;95708.00;;;6.16;61.45
21395;BME280;10858;42.714;23.180;2022-12-18T11:23:50;95712.34;;;6.34;62.32
21395;BME280;10858;42.714;23.180;2022-12-18T11:26:17;95709.88;;;6.48;60.93
21395;BME280;10858;42.714;23.180;2022-12-18T11:28:51;95705.81;;;6.58;61.63
21395;BME280;10858;42.714;23.180;2022-12-18T11:31:30;95705.97;;;6.55;61.76
21395;BME280;10858;42.714;23.180;2022-12-18T11:36:28;95708.69;;;7.04;60.30
21395;BME280;10858;42.714;23.180;2022-12-18T11:38:59;95716.31;;;6.93;61.87
21395;BME280;10858;42.714;23.180;2022-12-18T11:41:37;95708.16;;;6.64;60.09
21395;BME280;10858;42.714;23.180;2022-12-18T11:44:47;95708.13;;;7.14;59.49
21395;BME280;10858;42.714;23.180;2022-12-18T11:49:51;95706.56;;;6.77;60.90
21395;BME280;10858;42.714;23.180;2022-12-18T11:52:39;95703.28;;;6.89;61.27
21395;BME280;10858;42.714;23.180;2022-12-18T12:00:31;95689.91;;;6.60;62.49
21395;BME280;10858;42.714;23.180;2022-12-18T12:08:48;95698.25;;;6.35;64.03
21395;BME280;10858;42.714;23.180;2022-12-18T12:13:57;95695.28;;;6.58;63.04
21395;BME280;10858;42.714;23.180;2022-12-18T12:16:33;95688.91;;;6.62;63.00
21395;BME280;10858;42.714;23.180;2022-12-18T12:30:18;95717.22;;;7.09;61.92
21395;BME280;10858;42.714;23.180;2022-12-18T12:33:04;95710.22;;;7.08;62.29
21395;BME280;10858;42.714;23.180;2022-12-18T12:40:51;95703.47;;;7.50;60.45
21395;BME280;10858;42.714;23.180;2022-12-18T12:43:38;95701.50;;;7.54;59.66
21395;BME280;10858;42.714;23.180;2022-12-18T12:46:12;95700.91;;;7.33;59.56
21395;BME280;10858;42.714;23.180;2022-12-18T12:51:25;95710.59;;;7.17;60.56
21395;BME280;10858;42.714;23.180;2022-12-18T12:53:53;95718.19;;;7.23;59.64
21395;BME280;10858;42.714;23.180;2022-12-18T12:56:21;95717.25;;;7.40;59.17
21395;BME280;10858;42.714;23.180;2022-12-18T12:59:01;95715.66;;;7.53;60.46
21395;BME280;10858;42.714;23.180;2022-12-18T13:18:12;95728.94;;;6.70;62.15
21395;BME280;10858;42.714;23.180;2022-12-18T13:20:45;95735.38;;;6.98;61.45
21395;BME280;10858;42.714;23.180;2022-12-18T13:31:12;95746.78;;;7.15;60.46
21395;BME280;10858;42.714;23.180;2022-12-18T13:33:45;95743.22;;;7.32;59.92
21395;BME280;10858;42.714;23.180;2022-12-18T13:36:30;95750.53;;;7.27;61.04
21395;BME280;10858;42.714;23.180;2022-12-18T13:39:20;95746.75;;;7.63;59.00
21395;BME280;10858;42.714;23.180;2022-12-18T13:41:49;95749.31;;;7.49;59.42
21395;BME280;10858;42.714;23.180;2022-12-18T13:44:24;95748.69;;;7.12;59.78
21395;BME280;10858;42.714;23.180;2022-12-18T13:46:51;95752.75;;;7.02;60.30
21395;BME280;10858;42.714;23.180;2022-12-18T13:49:23;95758.47;;;7.27;59.69
21395;BME280;10858;42.714;23.180;2022-12-18T13:51:53;95763.53;;;7.14;59.00
21395;BME280;10858;42.714;23.180;2022-12-18T13:54:41;95766.59;;;6.89;59.31
21395;BME280;10858;42.714;23.180;2022-12-18T13:57:32;95765.81;;;7.05;58.37
21395;BME280;10858;42.714;23.180;2022-12-18T14:00:16;95767.03;;;6.98;58.43
21395;BME280;10858;42.714;23.180;2022-12-18T14:02:45;95763.34;;;6.84;58.72
21395;BME280;10858;42.714;23.180;2022-12-18T14:05:32;95765.81;;;6.87;60.19
21395;BME280;10858;42.714;23.180;2022-12-18T14:08:15;95766.69;;;6.54;60.87
21395;BME280;10858;42.714;23.180;2022-12-18T14:10:46;95771.88;;;6.38;61.87
21395;BME280;10858;42.714;23.180;2022-12-18T14:13:26;95775.78;;;6.31;61.46
21395;BME280;10858;42.714;23.180;2022-12-18T14:15:54;95769.16;;;6.40;62.21
21395;BME280;10858;42.714;23.180;2022-12-18T14:21:00;95784.59;;;6.30;60.92
21395;BME280;10858;42.714;23.180;2022-12-18T14:23:37;95774.13;;;6.29;61.24
21395;BME280;10858;42.714;23.180;2022-12-18T14:26:21;95777.19;;;6.20;59.32
21395;BME280;10858;42.714;23.180;2022-12-18T14:28:48;95779.53;;;6.26;60.77
21395;BME280;10858;42.714;23.180;2022-12-18T14:31:26;95785.59;;;6.28;59.75
21395;BME280;10858;42.714;23.180;2022-12-18T14:33:53;95785.75;;;6.25;60.09
21395;BME280;10858;42.714;23.180;2022-12-18T14:36:22;95782.75;;;6.14;61.35
21395;BME280;10858;42.714;23.180;2022-12-18T14:38:56;95777.75;;;6.09;60.12
21395;BME280;10858;42.714;23.180;2022-12-18T14:41:24;95771.97;;;6.54;59.38
21395;BME280;10858;42.714;23.180;2022-12-18T14:43:52;95776.94;;;6.43;58.79
21395;BME280;10858;42.714;23.180;2022-12-18T14:46:37;95784.28;;;6.36;60.24
21395;BME280;10858;42.714;23.180;2022-12-18T14:49:26;95785.84;;;6.40;59.86
21395;BME280;10858;42.714;23.180;2022-12-18T14:51:55;95789.41;;;6.39;60.70
21395;BME280;10858;42.714;23.180;2022-12-18T14:54:23;95786.53;;;6.44;59.42
21395;BME280;10858;42.714;23.180;2022-12-18T14:56:57;95790.03;;;6.27;59.58
21395;BME280;10858;42.714;23.180;2022-12-18T14:59:27;95792.28;;;5.99;59.68
21395;BME280;10858;42.714;23.180;2022-12-18T15:04:40;95788.16;;;6.29;59.49
21395;BME280;10858;42.714;23.180;2022-12-18T15:07:20;95792.19;;;6.19;59.46
21395;BME280;10858;42.714;23.180;2022-12-18T15:12:46;95789.06;;;6.11;59.91
21395;BME280;10858;42.714;23.180;2022-12-18T15:18:04;95807.72;;;5.88;60.42